createdAt,value
2022-09-05T00:02:03.066Z,99.90
2022-09-05T00:04:29.982Z,99.90
2022-09-05T00:07:05.072Z,99.90
2022-09-05T00:09:38.085Z,99.90
2022-09-05T00:12:05.978Z,99.90
2022-09-05T00:15:15.870Z,99.90
2022-09-05T00:21:08.196Z,99.90
2022-09-05T00:24:27.750Z,99.90
2022-09-05T00:24:35.545Z,99.90
2022-09-05T00:26:20.500Z,99.90
2022-09-05T00:28:47.753Z,99.90
2022-09-05T00:31:56.087Z,99.90
2022-09-05T00:34:19.853Z,99.90
2022-09-05T00:36:46.692Z,99.90
2022-09-05T00:39:17.901Z,99.90
2022-09-05T00:41:47.441Z,99.90
2022-09-05T00:44:14.437Z,99.90
2022-09-05T00:46:44.779Z,99.90
2022-09-05T00:49:14.670Z,99.90
2022-09-05T00:51:47.213Z,99.90
2022-09-05T00:54:29.895Z,99.90
2022-09-05T00:57:27.874Z,99.90
2022-09-05T01:00:03.124Z,99.90
2022-09-05T01:02:48.461Z,99.90
2022-09-05T01:05:37.509Z,99.90
2022-09-05T01:08:27.489Z,99.90
2022-09-05T01:11:01.693Z,99.90
2022-09-05T01:13:43.609Z,99.90
2022-09-05T01:16:13.401Z,99.90
2022-09-05T01:19:00.207Z,99.90
2022-09-05T01:21:49.014Z,99.90
2022-09-05T01:24:34.386Z,99.90
2022-09-05T01:27:19.898Z,99.90
2022-09-05T01:29:54.466Z,99.90
2022-09-05T01:32:29.117Z,99.90
2022-09-05T01:35:02.039Z,99.90
2022-09-05T01:37:33.935Z,99.90
2022-09-05T01:40:14.963Z,99.90
2022-09-05T01:42:43.497Z,99.90
2022-09-05T01:45:19.313Z,99.90
2022-09-05T01:47:53.710Z,99.90
2022-09-05T01:50:41.344Z,99.90
2022-09-05T01:53:26.938Z,99.90
2022-09-05T01:56:11.343Z,99.90
2022-09-05T01:58:57.461Z,99.90
2022-09-05T02:01:33.222Z,99.90
2022-09-05T02:04:19.269Z,99.90
2022-09-05T02:07:19.408Z,99.90
2022-09-05T02:10:07.619Z,99.90
2022-09-05T02:12:40.353Z,99.90
2022-09-05T02:15:08.821Z,99.90
2022-09-05T02:17:49.968Z,99.90
2022-09-05T02:20:23.620Z,99.90
2022-09-05T02:23:35.162Z,99.90
2022-09-05T02:26:12.811Z,99.90
2022-09-05T02:29:06.094Z,99.90
2022-09-05T02:31:42.799Z,99.90
2022-09-05T02:34:17.553Z,99.90
2022-09-05T02:37:03.029Z,99.90
2022-09-05T02:45:00.955Z,99.90
2022-09-05T02:45:10.682Z,99.90
2022-09-05T02:45:26.544Z,99.90
2022-09-05T02:48:16.293Z,99.90
2022-09-05T02:57:23.228Z,99.90
2022-09-05T02:57:34.735Z,99.90
2022-09-05T02:57:35.239Z,99.90
2022-09-05T02:59:36.799Z,99.90
2022-09-05T03:02:26.272Z,99.90
2022-09-05T03:04:55.682Z,99.90
2022-09-05T03:07:43.984Z,99.90
2022-09-05T03:10:10.821Z,99.90
2022-09-05T03:12:40.610Z,99.90
2022-09-05T03:15:26.503Z,99.90
2022-09-05T03:18:20.997Z,99.90
2022-09-05T03:20:51.311Z,99.90
2022-09-05T03:23:20.837Z,99.90
2022-09-05T03:25:59.578Z,99.90
2022-09-05T03:28:45.126Z,99.90
2022-09-05T03:31:30.774Z,99.90
2022-09-05T03:34:00.690Z,99.90
2022-09-05T03:36:27.830Z,99.90
2022-09-05T03:38:54.629Z,99.90
2022-09-05T03:41:21.470Z,99.90
2022-09-05T03:43:56.687Z,99.90
2022-09-05T03:46:42.403Z,99.90
2022-09-05T03:50:20.800Z,99.90
2022-09-05T03:57:06.348Z,99.90
2022-09-05T03:57:20.727Z,99.90
2022-09-05T03:58:16.337Z,99.90
2022-09-05T04:01:10.767Z,99.90
2022-09-05T04:08:10.607Z,99.90
2022-09-05T04:08:17.182Z,99.90
2022-09-05T04:09:53.282Z,99.90
2022-09-05T04:12:38.781Z,99.90
2022-09-05T04:15:24.430Z,99.90
2022-09-05T04:18:04.030Z,99.90
2022-09-05T04:20:31.382Z,99.90
2022-09-05T04:23:01.422Z,99.90
2022-09-05T04:25:28.244Z,99.90
2022-09-05T04:28:15.323Z,99.90
2022-09-05T04:30:42.156Z,99.90
2022-09-05T04:33:36.664Z,99.90
2022-09-05T04:36:17.650Z,99.90
2022-09-05T04:38:45.802Z,99.90
2022-09-05T04:41:37.654Z,99.90
2022-09-05T04:44:11.392Z,99.90
2022-09-05T04:46:53.695Z,99.90
2022-09-05T04:49:26.310Z,99.90
2022-09-05T04:52:00.657Z,99.90
2022-09-05T04:54:46.610Z,99.90
2022-09-05T04:57:14.264Z,99.90
2022-09-05T05:06:02.263Z,99.90
2022-09-05T05:06:13.107Z,99.90
2022-09-05T05:06:43.952Z,99.90
2022-09-05T05:09:06.823Z,99.90
2022-09-05T05:17:57.486Z,99.90
2022-09-05T05:18:10.905Z,99.90
2022-09-05T05:18:36.656Z,99.90
2022-09-05T05:20:48.415Z,99.90
2022-09-05T05:23:16.537Z,99.90
2022-09-05T05:25:43.293Z,99.90
2022-09-05T05:28:15.488Z,99.90
2022-09-05T05:30:51.425Z,99.90
2022-09-05T05:33:28.311Z,99.90
2022-09-05T05:35:58.706Z,99.90
2022-09-05T05:38:25.533Z,99.90
2022-09-05T05:41:01.540Z,99.90
2022-09-05T05:43:42.847Z,99.90
2022-09-05T05:46:15.483Z,99.90
2022-09-05T05:48:53.789Z,99.90
2022-09-05T05:51:36.397Z,99.90
2022-09-05T05:54:29.567Z,99.90
2022-09-05T05:57:20.866Z,99.90
2022-09-05T05:59:56.335Z,99.90
2022-09-05T06:02:41.877Z,99.90
2022-09-05T06:05:24.052Z,99.90
2022-09-05T06:09:57.493Z,99.90
2022-09-05T06:14:52.139Z,99.90
2022-09-05T06:15:06.036Z,99.90
2022-09-05T06:16:56.173Z,99.90
2022-09-05T06:20:16.394Z,99.90
2022-09-05T06:22:22.320Z,99.90
2022-09-05T06:24:58.566Z,99.90
2022-09-05T06:28:17.887Z,99.90
2022-09-05T06:31:28.970Z,99.90
2022-09-05T06:34:05.041Z,99.90
2022-09-05T06:36:32.261Z,99.90
2022-09-05T06:39:06.105Z,99.90
2022-09-05T06:41:33.098Z,99.90
2022-09-05T06:44:12.804Z,99.90
2022-09-05T06:47:22.494Z,99.90
2022-09-05T06:49:38.731Z,99.90
2022-09-05T06:52:29.213Z,99.90
2022-09-05T06:55:13.972Z,99.90
2022-09-05T06:57:44.945Z,99.90
2022-09-05T07:00:23.772Z,99.90
2022-09-05T07:02:58.811Z,99.90
2022-09-05T07:05:38.923Z,99.90
2022-09-05T07:08:31.802Z,99.90
2022-09-05T07:11:15.000Z,99.90
2022-09-05T07:13:55.590Z,99.90
2022-09-05T07:16:38.560Z,99.90
2022-09-05T07:19:27.521Z,99.90
2022-09-05T07:22:07.411Z,99.90
2022-09-05T07:24:55.936Z,99.90
2022-09-05T07:27:26.185Z,99.90
2022-09-05T07:30:01.734Z,99.90
2022-09-05T07:32:30.045Z,99.90
2022-09-05T07:34:58.161Z,99.90
2022-09-05T07:37:51.338Z,99.90
2022-09-05T07:40:26.296Z,99.90
2022-09-05T07:43:08.323Z,99.90
2022-09-05T07:45:47.728Z,99.90
2022-09-05T07:48:29.742Z,99.90
2022-09-05T07:56:50.090Z,99.90
2022-09-05T07:56:50.337Z,99.90
2022-09-05T07:57:05.033Z,99.90
2022-09-05T07:59:33.793Z,99.90
2022-09-05T08:02:01.856Z,99.90
2022-09-05T08:04:32.222Z,99.90
2022-09-05T08:07:49.479Z,99.90
2022-09-05T08:10:08.723Z,99.90
2022-09-05T08:13:22.755Z,99.90
2022-09-05T08:15:46.690Z,99.90
2022-09-05T08:18:22.869Z,99.90
2022-09-05T08:20:53.116Z,99.90
2022-09-05T08:23:19.969Z,99.90
2022-09-05T08:26:10.382Z,99.90
2022-09-05T08:28:56.203Z,99.90
2022-09-05T08:31:27.413Z,99.90
2022-09-05T08:33:57.332Z,99.90
2022-09-05T08:36:36.269Z,99.90
2022-09-05T08:39:04.435Z,99.90
2022-09-05T08:41:51.172Z,99.90
2022-09-05T08:46:46.559Z,99.90
2022-09-05T08:47:28.631Z,99.90
2022-09-05T08:50:21.232Z,99.90
2022-09-05T08:52:56.983Z,99.90
2022-09-05T08:55:26.645Z,99.90
2022-09-05T08:58:06.825Z,99.90
2022-09-05T09:00:37.595Z,99.90
2022-09-05T09:03:25.773Z,99.90
2022-09-05T09:06:13.542Z,99.90
2022-09-05T09:09:05.375Z,99.90
2022-09-05T09:11:38.675Z,99.90
2022-09-05T09:14:31.109Z,99.90
2022-09-05T09:17:18.096Z,99.90
2022-09-05T09:19:58.761Z,99.90
2022-09-05T09:22:25.663Z,99.90
2022-09-05T09:25:14.571Z,99.90
2022-09-05T09:28:48.309Z,99.90
2022-09-05T09:31:06.970Z,99.90
2022-09-05T09:33:45.373Z,99.90
2022-09-05T09:36:44.582Z,99.90
2022-09-05T09:39:38.726Z,99.90
2022-09-05T09:42:33.124Z,99.90
2022-09-05T09:45:28.648Z,99.90
2022-09-05T09:48:06.118Z,99.90
2022-09-05T09:50:59.391Z,99.90
2022-09-05T09:53:45.494Z,99.90
2022-09-05T09:56:27.400Z,99.90
2022-09-05T09:59:13.301Z,99.90
2022-09-05T10:01:53.583Z,99.90
2022-09-05T10:10:39.362Z,99.90
2022-09-05T10:10:47.495Z,99.90
2022-09-05T10:10:56.799Z,99.90
2022-09-05T10:13:22.069Z,99.90
2022-09-05T10:16:11.403Z,99.90
2022-09-05T10:18:41.493Z,99.90
2022-09-05T10:21:28.647Z,99.90
2022-09-05T10:24:14.485Z,99.90
2022-09-05T10:26:56.611Z,99.90
2022-09-05T10:29:39.657Z,99.90
2022-09-05T10:35:10.322Z,99.90
2022-09-05T10:35:23.947Z,99.90
2022-09-05T10:37:57.140Z,99.90
2022-09-05T10:40:25.679Z,99.90
2022-09-05T10:43:00.263Z,99.90
2022-09-05T10:45:44.264Z,99.90
2022-09-05T10:48:21.613Z,99.90
2022-09-05T10:50:51.623Z,99.90
2022-09-05T10:53:28.410Z,99.90
2022-09-05T10:56:11.924Z,99.90
2022-09-05T11:02:08.136Z,99.90
2022-09-05T11:02:27.233Z,99.90
2022-09-05T11:04:46.878Z,99.90
2022-09-05T11:07:35.536Z,99.90
2022-09-05T11:10:11.141Z,99.90
2022-09-05T11:12:57.379Z,99.90
2022-09-05T11:15:34.359Z,99.90
2022-09-05T11:18:09.013Z,99.90
2022-09-05T11:20:54.342Z,99.90
2022-09-05T11:23:30.623Z,99.30
2022-09-05T11:26:06.017Z,99.00
2022-09-05T11:28:57.420Z,99.60
2022-09-05T11:31:52.469Z,99.90
2022-09-05T11:39:50.726Z,97.50
2022-09-05T11:39:53.053Z,99.50
2022-09-05T11:41:08.508Z,97.20
2022-09-05T11:44:24.473Z,97.60
2022-09-05T11:46:54.060Z,98.30
2022-09-05T11:49:38.029Z,93.90
2022-09-05T11:52:23.965Z,92.40
2022-09-05T11:55:09.494Z,91.50
2022-09-05T11:58:29.632Z,91.80
2022-09-05T12:01:41.876Z,92.30
2022-09-05T12:04:16.449Z,90.80
2022-09-05T12:06:57.190Z,89.00
2022-09-05T12:09:37.932Z,87.30
2022-09-05T12:12:06.227Z,84.20
2022-09-05T12:14:55.130Z,86.80
2022-09-05T12:17:34.721Z,82.10
2022-09-05T12:20:16.958Z,82.80
2022-09-05T12:22:55.409Z,81.90
2022-09-05T12:27:38.895Z,83.40
2022-09-05T12:29:36.316Z,83.30
2022-09-05T12:32:36.432Z,83.80
2022-09-05T12:36:05.373Z,82.80
2022-09-05T12:40:53.445Z,79.90
2022-09-05T12:41:35.166Z,82.90
2022-09-05T12:44:01.277Z,78.80
2022-09-05T12:46:04.043Z,81.00
2022-09-05T12:48:43.321Z,79.70
2022-09-05T12:51:45.196Z,78.20
2022-09-05T12:54:32.688Z,77.80
2022-09-05T13:01:23.422Z,74.10
2022-09-05T13:03:09.274Z,69.80
2022-09-05T13:03:09.380Z,71.80
2022-09-05T13:05:46.097Z,66.80
2022-09-05T13:08:16.130Z,68.50
2022-09-05T13:14:49.304Z,70.10
2022-09-05T13:14:58.211Z,67.80
2022-09-05T13:16:29.448Z,64.30
2022-09-05T13:19:04.637Z,61.30
2022-09-05T13:21:31.621Z,59.00
2022-09-05T13:24:22.173Z,59.60
2022-09-05T13:26:55.137Z,60.00
2022-09-05T13:29:24.250Z,61.30
2022-09-05T13:38:02.742Z,64.50
2022-09-05T13:38:05.801Z,62.70
2022-09-05T13:38:07.750Z,59.90
2022-09-05T13:40:31.672Z,58.30
2022-09-05T13:43:05.297Z,57.10
2022-09-05T13:45:35.145Z,58.60
2022-09-05T13:48:27.626Z,57.20
2022-09-05T13:50:57.757Z,56.00
2022-09-05T13:53:31.238Z,55.00
2022-09-05T13:56:22.337Z,56.10
2022-09-05T13:59:01.484Z,55.60
2022-09-05T14:01:37.898Z,54.80
2022-09-05T14:05:04.826Z,55.40
2022-09-05T14:10:20.213Z,54.60
2022-09-05T14:12:49.203Z,53.50
2022-09-05T14:15:25.062Z,54.30
2022-09-05T14:18:01.295Z,53.00
2022-09-05T14:20:49.816Z,54.80
2022-09-05T14:23:19.013Z,56.20
2022-09-05T14:25:52.456Z,60.80
2022-09-05T14:28:26.203Z,64.10
2022-09-05T14:33:02.326Z,65.00
2022-09-05T14:37:50.571Z,60.60
2022-09-05T14:37:55.498Z,61.90
2022-09-05T14:39:45.519Z,57.30
2022-09-05T14:42:24.784Z,56.00
2022-09-05T14:45:10.203Z,55.60
2022-09-05T14:47:47.555Z,55.20
2022-09-05T14:50:30.081Z,54.50
2022-09-05T14:56:54.930Z,57.30
2022-09-05T15:02:53.581Z,56.20
2022-09-05T15:02:54.995Z,55.10
2022-09-05T15:04:46.528Z,53.30
2022-09-05T15:07:22.606Z,55.70
2022-09-05T15:12:15.014Z,53.90
2022-09-05T15:13:00.940Z,53.90
2022-09-05T15:15:28.931Z,54.40
2022-09-05T15:17:58.899Z,56.00
2022-09-05T15:20:30.724Z,57.70
2022-09-05T15:22:57.869Z,58.30
2022-09-05T15:25:26.640Z,55.70
2022-09-05T15:27:54.810Z,52.50
2022-09-05T15:30:40.061Z,50.10
2022-09-05T15:33:11.525Z,50.80
2022-09-05T15:35:42.409Z,51.20
2022-09-05T15:38:22.624Z,48.80
2022-09-05T15:41:09.332Z,47.20
2022-09-05T15:43:38.449Z,49.50
2022-09-05T15:46:05.670Z,51.30
2022-09-05T15:48:34.750Z,48.80
2022-09-05T15:51:11.187Z,49.00
2022-09-05T15:53:38.633Z,49.10
2022-09-05T15:56:11.254Z,50.10
2022-09-05T15:58:54.919Z,50.10
2022-09-05T16:01:52.372Z,50.30
2022-09-05T16:08:06.831Z,47.90
2022-09-05T16:10:35.549Z,47.50
2022-09-05T16:10:38.968Z,48.20
2022-09-05T16:12:42.129Z,49.10
2022-09-05T16:16:51.393Z,47.60
2022-09-05T16:23:16.571Z,48.70
2022-09-05T16:23:32.904Z,47.10
2022-09-05T16:23:51.097Z,48.60
2022-09-05T16:26:26.460Z,49.10
2022-09-05T16:29:05.332Z,52.10
2022-09-05T16:31:40.312Z,53.20
2022-09-05T16:34:08.405Z,48.50
2022-09-05T16:36:52.740Z,49.20
2022-09-05T16:39:37.326Z,53.40
2022-09-05T16:42:11.861Z,59.80
2022-09-05T16:44:41.544Z,60.50
2022-09-05T16:47:08.295Z,68.80
2022-09-05T16:49:44.094Z,73.60
2022-09-05T16:52:17.736Z,77.90
2022-09-05T16:54:47.789Z,82.30
2022-09-05T16:57:17.588Z,82.80
2022-09-05T16:59:45.693Z,84.70
2022-09-05T17:02:27.746Z,83.80
2022-09-05T17:05:03.453Z,89.20
2022-09-05T17:07:46.338Z,90.60
2022-09-05T17:10:17.885Z,91.10
2022-09-05T17:12:44.749Z,92.40
2022-09-05T17:15:16.448Z,93.50
2022-09-05T17:18:19.970Z,94.20
2022-09-05T17:20:33.257Z,94.20
2022-09-05T17:29:20.889Z,95.80
2022-09-05T17:29:28.585Z,96.40
2022-09-05T17:29:46.906Z,98.20
2022-09-05T17:31:56.953Z,99.60
2022-09-05T17:34:25.478Z,99.90
2022-09-05T17:36:52.330Z,99.90
2022-09-05T17:39:35.948Z,99.90
2022-09-05T17:43:03.257Z,99.90
2022-09-05T17:45:51.679Z,99.90
2022-09-05T17:49:16.162Z,99.90
2022-09-05T17:51:55.017Z,99.90
2022-09-05T17:54:30.747Z,99.90
2022-09-05T17:57:29.459Z,99.90
2022-09-05T18:00:07.062Z,99.90
2022-09-05T18:02:56.689Z,99.90
2022-09-05T18:05:54.525Z,99.90
2022-09-05T18:08:46.304Z,99.90
2022-09-05T18:11:25.637Z,99.90
2022-09-05T18:14:25.173Z,99.90
2022-09-05T18:17:35.318Z,99.90
2022-09-05T18:19:41.200Z,99.90
2022-09-05T18:22:28.187Z,99.90
2022-09-05T18:25:27.724Z,99.90
2022-09-05T18:28:32.260Z,99.90
2022-09-05T18:31:41.747Z,99.90
2022-09-05T18:34:15.749Z,99.90
2022-09-05T18:36:50.882Z,99.90
2022-09-05T18:39:24.291Z,99.90
2022-09-05T18:42:33.599Z,99.90
2022-09-05T18:45:02.417Z,99.90
2022-09-05T18:47:53.279Z,99.90
2022-09-05T18:50:32.292Z,99.90
2022-09-05T18:53:09.548Z,99.90
2022-09-05T18:56:13.325Z,99.90
2022-09-05T18:59:10.139Z,99.90
2022-09-05T19:01:55.449Z,99.90
2022-09-05T19:04:40.982Z,99.90
2022-09-05T19:07:23.693Z,99.90
2022-09-05T19:10:34.396Z,99.90
2022-09-05T19:13:09.346Z,99.90
2022-09-05T19:15:49.873Z,99.90
2022-09-05T19:18:26.363Z,99.90
2022-09-05T19:21:12.091Z,99.90
2022-09-05T19:23:56.422Z,99.90
2022-09-05T19:26:24.143Z,99.90
2022-09-05T19:36:44.148Z,99.90
2022-09-05T19:36:49.646Z,99.90
2022-09-05T19:36:51.434Z,99.90
2022-09-05T19:37:41.169Z,99.90
2022-09-05T19:47:10.998Z,99.90
2022-09-05T19:47:39.852Z,99.90
2022-09-05T19:47:48.946Z,99.90
2022-09-05T19:49:12.161Z,99.90
2022-09-05T19:51:43.669Z,99.90
2022-09-05T19:54:35.004Z,99.90
2022-09-05T19:57:06.602Z,99.90
2022-09-05T19:59:39.450Z,99.90
2022-09-05T20:02:20.428Z,99.90
2022-09-05T20:04:53.822Z,99.90
2022-09-05T20:07:23.970Z,99.90
2022-09-05T20:09:52.890Z,99.90
2022-09-05T20:12:24.361Z,99.90
2022-09-05T20:14:51.618Z,99.90
2022-09-05T20:17:29.080Z,99.90
2022-09-05T20:20:12.449Z,99.90
2022-09-05T20:22:48.682Z,99.90
2022-09-05T20:25:38.242Z,99.90
2022-09-05T20:28:10.293Z,99.90
2022-09-05T20:30:45.076Z,99.90
2022-09-05T20:33:23.948Z,99.90
2022-09-05T20:43:12.031Z,99.90
2022-09-05T20:43:30.011Z,99.90
2022-09-05T20:43:31.715Z,99.90
2022-09-05T20:44:39.705Z,99.90
2022-09-05T20:50:53.978Z,99.90
2022-09-05T20:54:16.806Z,99.90
2022-09-05T20:54:27.969Z,99.90
2022-09-05T20:56:22.527Z,99.90
2022-09-05T20:58:51.218Z,99.90
2022-09-05T21:01:23.536Z,99.90
2022-09-05T21:04:02.418Z,99.90
2022-09-05T21:06:41.813Z,99.90
2022-09-05T21:09:15.642Z,99.90
2022-09-05T21:11:50.893Z,99.90
2022-09-05T21:14:22.751Z,99.90
2022-09-05T21:16:56.916Z,99.90
2022-09-05T21:19:35.262Z,99.90
2022-09-05T21:22:24.923Z,99.90
2022-09-05T21:25:21.085Z,99.90
2022-09-05T21:28:21.789Z,99.90
2022-09-05T21:30:49.071Z,99.90
2022-09-05T21:33:20.122Z,99.90
2022-09-05T21:36:09.697Z,99.90
2022-09-05T21:38:41.847Z,99.90
2022-09-05T21:41:09.284Z,99.90
2022-09-05T21:47:35.965Z,99.90
2022-09-05T21:47:40.905Z,99.90
2022-09-05T21:49:14.476Z,99.90
2022-09-05T21:51:48.112Z,99.90
2022-09-05T21:57:00.403Z,99.90
2022-09-05T21:59:24.827Z,99.90
2022-09-05T22:00:06.979Z,99.90
2022-09-05T22:02:49.247Z,99.90
2022-09-05T22:05:17.138Z,99.90
2022-09-05T22:07:44.194Z,99.90
2022-09-05T22:10:11.513Z,99.90
2022-09-05T22:12:41.426Z,99.90
2022-09-05T22:15:27.470Z,99.90
2022-09-05T22:18:16.117Z,99.90
2022-09-05T22:21:01.301Z,99.90
2022-09-05T22:23:35.888Z,99.90
2022-09-05T22:26:07.073Z,99.90
2022-09-05T22:28:38.414Z,99.90
2022-09-05T22:31:07.896Z,99.90
2022-09-05T22:33:35.419Z,99.90
2022-09-05T22:36:02.630Z,99.90
2022-09-05T22:38:29.801Z,99.90
2022-09-05T22:40:57.496Z,99.90
2022-09-05T22:43:25.677Z,99.90
2022-09-05T22:45:56.330Z,99.90
2022-09-05T22:48:24.180Z,99.90
2022-09-05T22:50:51.091Z,99.90
2022-09-05T22:53:18.082Z,99.90
2022-09-05T22:55:45.111Z,99.90
2022-09-05T22:58:14.064Z,99.90
2022-09-05T23:00:41.868Z,99.90
2022-09-05T23:03:09.085Z,99.90
2022-09-05T23:05:36.097Z,99.90
2022-09-05T23:08:04.838Z,99.90
2022-09-05T23:10:32.445Z,99.90
2022-09-05T23:13:02.735Z,99.90
2022-09-05T23:15:29.698Z,99.90
2022-09-05T23:17:58.997Z,99.90
2022-09-05T23:20:28.356Z,99.90
2022-09-05T23:22:55.429Z,99.90
2022-09-05T23:25:23.177Z,99.90
2022-09-05T23:27:50.510Z,99.90
2022-09-05T23:30:17.918Z,99.90
2022-09-05T23:32:50.218Z,99.90
2022-09-05T23:35:18.826Z,99.90
2022-09-05T23:37:47.157Z,99.90
2022-09-05T23:40:21.891Z,99.90
2022-09-05T23:42:57.325Z,99.90
2022-09-05T23:45:25.537Z,99.90
2022-09-05T23:47:53.205Z,99.90
2022-09-05T23:50:21.163Z,99.90
2022-09-05T23:52:48.422Z,99.90
2022-09-05T23:55:18.090Z,99.90
2022-09-05T23:57:45.766Z,99.90
